sensor_id;sensor_type;location;lat;lon;timestamp;P1;durP1;ratioP1;P2;durP2;ratioP2
81648;SDS011;71057;51.436;6.768;2023-08-30T00:01:41;15.20;;;10.03;;
81648;SDS011;71057;51.436;6.768;2023-08-30T00:04:06;12.13;;;9.03;;
81648;SDS011;71057;51.436;6.768;2023-08-30T00:06:32;12.45;;;9.50;;
81648;SDS011;71057;51.436;6.768;2023-08-30T00:08:57;14.67;;;9.33;;
81648;SDS011;71057;51.436;6.768;2023-08-30T00:11:23;16.88;;;11.68;;
81648;SDS011;71057;51.436;6.768;2023-08-30T00:13:48;12.80;;;10.27;;
81648;SDS011;71057;51.436;6.768;2023-08-30T00:16:13;15.97;;;11.97;;
81648;SDS011;71057;51.436;6.768;2023-08-30T00:18:41;12.68;;;9.90;;
81648;SDS011;71057;51.436;6.768;2023-08-30T00:21:06;12.17;;;10.40;;
81648;SDS011;71057;51.436;6.768;2023-08-30T00:23:32;11.83;;;10.10;;
81648;SDS011;71057;51.436;6.768;2023-08-30T00:25:57;11.07;;;8.50;;
81648;SDS011;71057;51.436;6.768;2023-08-30T00:28:22;15.03;;;9.53;;
81648;SDS011;71057;51.436;6.768;2023-08-30T00:30:52;12.00;;;9.43;;
81648;SDS011;71057;51.436;6.768;2023-08-30T00:33:17;13.07;;;9.57;;
81648;SDS011;71057;51.436;6.768;2023-08-30T00:35:42;11.70;;;9.63;;
81648;SDS011;71057;51.436;6.768;2023-08-30T00:38:08;12.53;;;9.63;;
81648;SDS011;71057;51.436;6.768;2023-08-30T00:40:39;17.20;;;12.03;;
81648;SDS011;71057;51.436;6.768;2023-08-30T00:43:05;12.82;;;9.95;;
81648;SDS011;71057;51.436;6.768;2023-08-30T00:45:30;13.68;;;10.60;;
81648;SDS011;71057;51.436;6.768;2023-08-30T00:47:55;14.20;;;11.43;;
81648;SDS011;71057;51.436;6.768;2023-08-30T00:50:20;15.00;;;10.47;;
81648;SDS011;71057;51.436;6.768;2023-08-30T00:52:46;16.17;;;10.40;;
81648;SDS011;71057;51.436;6.768;2023-08-30T00:55:11;15.20;;;11.00;;
81648;SDS011;71057;51.436;6.768;2023-08-30T00:57:36;14.93;;;10.97;;
81648;SDS011;71057;51.436;6.768;2023-08-30T01:00:02;14.57;;;10.82;;
81648;SDS011;71057;51.436;6.768;2023-08-30T01:02:29;13.30;;;9.63;;
81648;SDS011;71057;51.436;6.768;2023-08-30T01:04:55;15.65;;;10.35;;
81648;SDS011;71057;51.436;6.768;2023-08-30T01:07:20;14.57;;;11.30;;
81648;SDS011;71057;51.436;6.768;2023-08-30T01:09:46;14.87;;;10.80;;
81648;SDS011;71057;51.436;6.768;2023-08-30T01:12:17;13.57;;;10.33;;
81648;SDS011;71057;51.436;6.768;2023-08-30T01:17:19;14.75;;;10.27;;
81648;SDS011;71057;51.436;6.768;2023-08-30T01:22:16;14.97;;;9.57;;
81648;SDS011;71057;51.436;6.768;2023-08-30T01:24:55;13.10;;;10.70;;
81648;SDS011;71057;51.436;6.768;2023-08-30T01:27:24;13.15;;;10.13;;
81648;SDS011;71057;51.436;6.768;2023-08-30T01:29:50;13.10;;;9.80;;
81648;SDS011;71057;51.436;6.768;2023-08-30T01:32:17;15.80;;;11.48;;
81648;SDS011;71057;51.436;6.768;2023-08-30T01:34:42;15.18;;;10.73;;
81648;SDS011;71057;51.436;6.768;2023-08-30T01:37:10;12.73;;;10.88;;
81648;SDS011;71057;51.436;6.768;2023-08-30T01:39:36;14.47;;;10.77;;
81648;SDS011;71057;51.436;6.768;2023-08-30T01:42:01;17.20;;;10.95;;
81648;SDS011;71057;51.436;6.768;2023-08-30T01:44:28;15.13;;;11.65;;
81648;SDS011;71057;51.436;6.768;2023-08-30T01:46:54;17.13;;;13.18;;
81648;SDS011;71057;51.436;6.768;2023-08-30T01:49:19;15.75;;;10.90;;
81648;SDS011;71057;51.436;6.768;2023-08-30T01:51:45;15.45;;;12.82;;
81648;SDS011;71057;51.436;6.768;2023-08-30T01:54:10;14.68;;;10.50;;
81648;SDS011;71057;51.436;6.768;2023-08-30T01:56:40;16.33;;;12.38;;
81648;SDS011;71057;51.436;6.768;2023-08-30T01:59:05;16.07;;;11.87;;
81648;SDS011;71057;51.436;6.768;2023-08-30T02:01:30;15.80;;;12.37;;
81648;SDS011;71057;51.436;6.768;2023-08-30T02:03:55;17.77;;;12.10;;
81648;SDS011;71057;51.436;6.768;2023-08-30T02:06:25;17.40;;;10.67;;
81648;SDS011;71057;51.436;6.768;2023-08-30T02:11:22;14.23;;;11.10;;
81648;SDS011;71057;51.436;6.768;2023-08-30T02:13:48;17.30;;;11.85;;
81648;SDS011;71057;51.436;6.768;2023-08-30T02:16:14;16.35;;;12.32;;
81648;SDS011;71057;51.436;6.768;2023-08-30T02:18:40;14.25;;;11.52;;
81648;SDS011;71057;51.436;6.768;2023-08-30T02:21:06;14.98;;;11.75;;
81648;SDS011;71057;51.436;6.768;2023-08-30T02:23:31;15.27;;;10.97;;
81648;SDS011;71057;51.436;6.768;2023-08-30T02:25:56;18.10;;;13.30;;
81648;SDS011;71057;51.436;6.768;2023-08-30T02:28:21;20.30;;;13.87;;
81648;SDS011;71057;51.436;6.768;2023-08-30T02:30:47;19.73;;;15.35;;
81648;SDS011;71057;51.436;6.768;2023-08-30T02:33:12;16.85;;;13.15;;
81648;SDS011;71057;51.436;6.768;2023-08-30T02:35:37;21.43;;;15.33;;
81648;SDS011;71057;51.436;6.768;2023-08-30T02:38:02;16.00;;;13.53;;
81648;SDS011;71057;51.436;6.768;2023-08-30T02:40:30;17.05;;;13.88;;
81648;SDS011;71057;51.436;6.768;2023-08-30T02:42:55;17.75;;;13.50;;
81648;SDS011;71057;51.436;6.768;2023-08-30T02:45:20;16.07;;;12.63;;
81648;SDS011;71057;51.436;6.768;2023-08-30T02:47:45;17.00;;;12.23;;
81648;SDS011;71057;51.436;6.768;2023-08-30T02:50:11;15.63;;;12.93;;
81648;SDS011;71057;51.436;6.768;2023-08-30T02:52:36;25.67;;;15.50;;
81648;SDS011;71057;51.436;6.768;2023-08-30T02:55:01;21.80;;;15.93;;
81648;SDS011;71057;51.436;6.768;2023-08-30T02:57:26;20.00;;;14.07;;
81648;SDS011;71057;51.436;6.768;2023-08-30T02:59:52;19.33;;;14.33;;
81648;SDS011;71057;51.436;6.768;2023-08-30T03:02:17;20.50;;;14.40;;
81648;SDS011;71057;51.436;6.768;2023-08-30T03:04:42;17.90;;;14.05;;
81648;SDS011;71057;51.436;6.768;2023-08-30T03:07:07;20.47;;;15.20;;
81648;SDS011;71057;51.436;6.768;2023-08-30T03:09:33;22.60;;;14.17;;
81648;SDS011;71057;51.436;6.768;2023-08-30T03:11:58;22.40;;;15.13;;
81648;SDS011;71057;51.436;6.768;2023-08-30T03:14:23;18.97;;;14.90;;
81648;SDS011;71057;51.436;6.768;2023-08-30T03:16:48;19.27;;;15.27;;
81648;SDS011;71057;51.436;6.768;2023-08-30T03:19:13;19.23;;;14.70;;
81648;SDS011;71057;51.436;6.768;2023-08-30T03:21:39;20.00;;;15.27;;
81648;SDS011;71057;51.436;6.768;2023-08-30T03:24:04;24.20;;;15.67;;
81648;SDS011;71057;51.436;6.768;2023-08-30T03:26:29;21.77;;;15.02;;
81648;SDS011;71057;51.436;6.768;2023-08-30T03:28:54;18.60;;;14.00;;
81648;SDS011;71057;51.436;6.768;2023-08-30T03:31:20;21.43;;;15.70;;
81648;SDS011;71057;51.436;6.768;2023-08-30T03:33:46;22.38;;;16.02;;
81648;SDS011;71057;51.436;6.768;2023-08-30T03:36:12;19.70;;;15.68;;
81648;SDS011;71057;51.436;6.768;2023-08-30T03:38:38;20.45;;;16.17;;
81648;SDS011;71057;51.436;6.768;2023-08-30T03:41:03;23.15;;;16.35;;
81648;SDS011;71057;51.436;6.768;2023-08-30T03:43:29;20.88;;;15.68;;
81648;SDS011;71057;51.436;6.768;2023-08-30T03:45:54;20.10;;;15.50;;
81648;SDS011;71057;51.436;6.768;2023-08-30T03:48:19;17.27;;;13.50;;
81648;SDS011;71057;51.436;6.768;2023-08-30T03:50:44;18.43;;;14.20;;
81648;SDS011;71057;51.436;6.768;2023-08-30T03:53:09;20.23;;;13.33;;
81648;SDS011;71057;51.436;6.768;2023-08-30T03:55:35;17.80;;;14.03;;
81648;SDS011;71057;51.436;6.768;2023-08-30T03:58:00;21.13;;;15.00;;
81648;SDS011;71057;51.436;6.768;2023-08-30T04:00:25;18.67;;;13.47;;
81648;SDS011;71057;51.436;6.768;2023-08-30T04:02:50;21.87;;;15.30;;
81648;SDS011;71057;51.436;6.768;2023-08-30T04:05:15;21.50;;;14.27;;
81648;SDS011;71057;51.436;6.768;2023-08-30T04:07:40;19.63;;;14.37;;
81648;SDS011;71057;51.436;6.768;2023-08-30T04:10:06;20.37;;;13.67;;
81648;SDS011;71057;51.436;6.768;2023-08-30T04:12:32;23.85;;;15.30;;
81648;SDS011;71057;51.436;6.768;2023-08-30T04:14:58;17.40;;;13.43;;
81648;SDS011;71057;51.436;6.768;2023-08-30T04:17:23;18.80;;;13.53;;
81648;SDS011;71057;51.436;6.768;2023-08-30T04:19:51;16.80;;;12.15;;
81648;SDS011;71057;51.436;6.768;2023-08-30T04:22:16;19.17;;;12.75;;
81648;SDS011;71057;51.436;6.768;2023-08-30T04:24:41;17.53;;;13.20;;
81648;SDS011;71057;51.436;6.768;2023-08-30T04:27:06;20.43;;;15.33;;
81648;SDS011;71057;51.436;6.768;2023-08-30T04:29:31;17.17;;;12.60;;
81648;SDS011;71057;51.436;6.768;2023-08-30T04:31:57;18.80;;;12.97;;
81648;SDS011;71057;51.436;6.768;2023-08-30T04:34:22;18.30;;;13.52;;
81648;SDS011;71057;51.436;6.768;2023-08-30T04:36:48;21.20;;;13.77;;
81648;SDS011;71057;51.436;6.768;2023-08-30T04:39:13;19.17;;;14.07;;
81648;SDS011;71057;51.436;6.768;2023-08-30T04:41:38;19.55;;;14.77;;
81648;SDS011;71057;51.436;6.768;2023-08-30T04:44:04;22.03;;;16.33;;
81648;SDS011;71057;51.436;6.768;2023-08-30T04:46:29;22.35;;;15.80;;
81648;SDS011;71057;51.436;6.768;2023-08-30T04:48:54;22.83;;;15.30;;
81648;SDS011;71057;51.436;6.768;2023-08-30T04:51:19;21.07;;;16.13;;
81648;SDS011;71057;51.436;6.768;2023-08-30T04:53:44;22.40;;;16.37;;
81648;SDS011;71057;51.436;6.768;2023-08-30T04:56:10;22.47;;;15.77;;
81648;SDS011;71057;51.436;6.768;2023-08-30T04:58:35;27.02;;;17.05;;
81648;SDS011;71057;51.436;6.768;2023-08-30T05:01:01;22.97;;;16.87;;
81648;SDS011;71057;51.436;6.768;2023-08-30T05:03:26;22.17;;;15.50;;
81648;SDS011;71057;51.436;6.768;2023-08-30T05:05:52;21.55;;;15.95;;
81648;SDS011;71057;51.436;6.768;2023-08-30T05:08:17;18.27;;;15.07;;
81648;SDS011;71057;51.436;6.768;2023-08-30T05:10:42;21.33;;;16.13;;
81648;SDS011;71057;51.436;6.768;2023-08-30T05:13:08;24.10;;;16.50;;
81648;SDS011;71057;51.436;6.768;2023-08-30T05:15:33;20.83;;;14.82;;
81648;SDS011;71057;51.436;6.768;2023-08-30T05:17:58;24.07;;;16.70;;
81648;SDS011;71057;51.436;6.768;2023-08-30T05:20:23;22.97;;;17.20;;
81648;SDS011;71057;51.436;6.768;2023-08-30T05:22:48;26.47;;;16.60;;
81648;SDS011;71057;51.436;6.768;2023-08-30T05:25:14;21.97;;;15.37;;
81648;SDS011;71057;51.436;6.768;2023-08-30T05:27:39;25.03;;;18.67;;
81648;SDS011;71057;51.436;6.768;2023-08-30T05:30:04;25.52;;;17.90;;
81648;SDS011;71057;51.436;6.768;2023-08-30T05:32:30;23.50;;;16.20;;
81648;SDS011;71057;51.436;6.768;2023-08-30T05:34:56;21.83;;;16.67;;
81648;SDS011;71057;51.436;6.768;2023-08-30T05:37:21;24.63;;;16.47;;
81648;SDS011;71057;51.436;6.768;2023-08-30T05:39:46;22.20;;;16.00;;
81648;SDS011;71057;51.436;6.768;2023-08-30T05:42:11;23.20;;;16.97;;
81648;SDS011;71057;51.436;6.768;2023-08-30T05:44:37;25.85;;;16.15;;
81648;SDS011;71057;51.436;6.768;2023-08-30T05:47:03;22.47;;;16.40;;
81648;SDS011;71057;51.436;6.768;2023-08-30T05:49:28;22.08;;;15.60;;
81648;SDS011;71057;51.436;6.768;2023-08-30T05:51:53;22.87;;;16.30;;
81648;SDS011;71057;51.436;6.768;2023-08-30T05:54:19;22.45;;;16.10;;
81648;SDS011;71057;51.436;6.768;2023-08-30T05:56:44;22.47;;;14.73;;
81648;SDS011;71057;51.436;6.768;2023-08-30T05:59:09;21.80;;;15.93;;
81648;SDS011;71057;51.436;6.768;2023-08-30T06:01:35;19.87;;;13.77;;
81648;SDS011;71057;51.436;6.768;2023-08-30T06:04:00;22.48;;;16.15;;
81648;SDS011;71057;51.436;6.768;2023-08-30T06:06:25;23.90;;;16.47;;
81648;SDS011;71057;51.436;6.768;2023-08-30T06:08:52;19.30;;;14.73;;
81648;SDS011;71057;51.436;6.768;2023-08-30T06:11:17;18.60;;;13.73;;
81648;SDS011;71057;51.436;6.768;2023-08-30T06:13:42;21.33;;;16.03;;
81648;SDS011;71057;51.436;6.768;2023-08-30T06:16:07;20.07;;;14.57;;
81648;SDS011;71057;51.436;6.768;2023-08-30T06:18:33;19.33;;;15.07;;
81648;SDS011;71057;51.436;6.768;2023-08-30T06:20:58;18.80;;;13.67;;
81648;SDS011;71057;51.436;6.768;2023-08-30T06:23:23;21.80;;;15.20;;
81648;SDS011;71057;51.436;6.768;2023-08-30T06:25:55;21.30;;;16.17;;
81648;SDS011;71057;51.436;6.768;2023-08-30T06:28:20;20.92;;;15.65;;
81648;SDS011;71057;51.436;6.768;2023-08-30T06:30:45;20.67;;;15.03;;
81648;SDS011;71057;51.436;6.768;2023-08-30T06:33:10;19.93;;;15.53;;
81648;SDS011;71057;51.436;6.768;2023-08-30T06:35:36;22.13;;;15.13;;
81648;SDS011;71057;51.436;6.768;2023-08-30T06:38:01;19.85;;;14.98;;
81648;SDS011;71057;51.436;6.768;2023-08-30T06:40:26;19.83;;;14.93;;
81648;SDS011;71057;51.436;6.768;2023-08-30T06:42:52;19.33;;;14.10;;
81648;SDS011;71057;51.436;6.768;2023-08-30T06:45:17;19.07;;;14.90;;
81648;SDS011;71057;51.436;6.768;2023-08-30T06:47:42;20.43;;;15.40;;
81648;SDS011;71057;51.436;6.768;2023-08-30T06:50:07;19.07;;;14.40;;
81648;SDS011;71057;51.436;6.768;2023-08-30T06:52:34;16.60;;;13.68;;
81648;SDS011;71057;51.436;6.768;2023-08-30T06:54:59;16.10;;;12.67;;
81648;SDS011;71057;51.436;6.768;2023-08-30T06:57:24;16.93;;;12.33;;
81648;SDS011;71057;51.436;6.768;2023-08-30T06:59:49;16.83;;;12.83;;
81648;SDS011;71057;51.436;6.768;2023-08-30T07:02:15;19.80;;;12.00;;
81648;SDS011;71057;51.436;6.768;2023-08-30T07:04:40;15.43;;;12.67;;
81648;SDS011;71057;51.436;6.768;2023-08-30T07:07:05;15.47;;;12.13;;
81648;SDS011;71057;51.436;6.768;2023-08-30T07:09:30;17.00;;;12.07;;
81648;SDS011;71057;51.436;6.768;2023-08-30T07:11:57;15.43;;;11.85;;
81648;SDS011;71057;51.436;6.768;2023-08-30T07:14:22;15.65;;;12.32;;
81648;SDS011;71057;51.436;6.768;2023-08-30T07:16:47;15.07;;;12.03;;
81648;SDS011;71057;51.436;6.768;2023-08-30T07:19:14;15.45;;;12.50;;
81648;SDS011;71057;51.436;6.768;2023-08-30T07:21:39;14.40;;;11.25;;
81648;SDS011;71057;51.436;6.768;2023-08-30T07:24:05;16.20;;;11.57;;
81648;SDS011;71057;51.436;6.768;2023-08-30T07:26:31;15.60;;;11.13;;
81648;SDS011;71057;51.436;6.768;2023-08-30T07:28:56;13.80;;;10.97;;
81648;SDS011;71057;51.436;6.768;2023-08-30T07:31:21;16.50;;;10.73;;
81648;SDS011;71057;51.436;6.768;2023-08-30T07:33:46;14.60;;;10.27;;
81648;SDS011;71057;51.436;6.768;2023-08-30T07:36:11;12.65;;;10.05;;
81648;SDS011;71057;51.436;6.768;2023-08-30T07:38:37;14.00;;;10.02;;
81648;SDS011;71057;51.436;6.768;2023-08-30T07:41:02;12.23;;;9.82;;
81648;SDS011;71057;51.436;6.768;2023-08-30T07:43:27;11.20;;;8.67;;
81648;SDS011;71057;51.436;6.768;2023-08-30T07:45:52;9.87;;;8.00;;
81648;SDS011;71057;51.436;6.768;2023-08-30T07:48:18;12.23;;;7.93;;
81648;SDS011;71057;51.436;6.768;2023-08-30T07:50:43;10.50;;;8.23;;
81648;SDS011;71057;51.436;6.768;2023-08-30T07:53:08;10.32;;;8.07;;
81648;SDS011;71057;51.436;6.768;2023-08-30T07:55:35;10.00;;;7.65;;
81648;SDS011;71057;51.436;6.768;2023-08-30T07:58:00;11.03;;;8.33;;
81648;SDS011;71057;51.436;6.768;2023-08-30T08:00:25;11.93;;;7.73;;
81648;SDS011;71057;51.436;6.768;2023-08-30T08:02:50;9.73;;;7.43;;
81648;SDS011;71057;51.436;6.768;2023-08-30T08:05:15;10.23;;;6.90;;
81648;SDS011;71057;51.436;6.768;2023-08-30T08:07:42;8.02;;;6.82;;
81648;SDS011;71057;51.436;6.768;2023-08-30T08:10:07;8.60;;;6.50;;
81648;SDS011;71057;51.436;6.768;2023-08-30T08:12:32;8.40;;;5.70;;
81648;SDS011;71057;51.436;6.768;2023-08-30T08:14:58;9.83;;;5.77;;
81648;SDS011;71057;51.436;6.768;2023-08-30T08:17:23;7.83;;;5.63;;
81648;SDS011;71057;51.436;6.768;2023-08-30T08:19:48;7.33;;;5.30;;
81648;SDS011;71057;51.436;6.768;2023-08-30T08:22:13;8.43;;;5.20;;
81648;SDS011;71057;51.436;6.768;2023-08-30T08:24:38;9.73;;;5.80;;
81648;SDS011;71057;51.436;6.768;2023-08-30T08:27:04;8.63;;;4.40;;
81648;SDS011;71057;51.436;6.768;2023-08-30T08:29:30;6.28;;;4.47;;
81648;SDS011;71057;51.436;6.768;2023-08-30T08:31:55;10.10;;;4.93;;
81648;SDS011;71057;51.436;6.768;2023-08-30T08:34:20;6.53;;;4.20;;
81648;SDS011;71057;51.436;6.768;2023-08-30T08:36:46;6.63;;;4.72;;
81648;SDS011;71057;51.436;6.768;2023-08-30T08:39:11;6.23;;;4.50;;
81648;SDS011;71057;51.436;6.768;2023-08-30T08:41:42;7.82;;;4.53;;
81648;SDS011;71057;51.436;6.768;2023-08-30T08:44:08;6.40;;;4.53;;
81648;SDS011;71057;51.436;6.768;2023-08-30T08:46:34;7.72;;;4.95;;
81648;SDS011;71057;51.436;6.768;2023-08-30T08:49:01;6.70;;;5.55;;
81648;SDS011;71057;51.436;6.768;2023-08-30T08:51:26;8.48;;;4.75;;
81648;SDS011;71057;51.436;6.768;2023-08-30T08:53:53;6.68;;;4.60;;
81648;SDS011;71057;51.436;6.768;2023-08-30T08:56:20;6.60;;;4.25;;
81648;SDS011;71057;51.436;6.768;2023-08-30T08:58:45;10.30;;;5.05;;
81648;SDS011;71057;51.436;6.768;2023-08-30T09:01:11;7.25;;;4.72;;
81648;SDS011;71057;51.436;6.768;2023-08-30T09:03:36;9.10;;;5.77;;
81648;SDS011;71057;51.436;6.768;2023-08-30T09:06:02;9.73;;;5.10;;
81648;SDS011;71057;51.436;6.768;2023-08-30T09:08:28;6.70;;;4.82;;
81648;SDS011;71057;51.436;6.768;2023-08-30T09:10:53;8.23;;;4.93;;
81648;SDS011;71057;51.436;6.768;2023-08-30T09:13:18;6.10;;;4.50;;
81648;SDS011;71057;51.436;6.768;2023-08-30T09:15:45;5.60;;;4.30;;
81648;SDS011;71057;51.436;6.768;2023-08-30T09:18:14;7.87;;;3.97;;
81648;SDS011;71057;51.436;6.768;2023-08-30T09:20:39;5.18;;;4.10;;
81648;SDS011;71057;51.436;6.768;2023-08-30T09:23:04;6.87;;;4.47;;
81648;SDS011;71057;51.436;6.768;2023-08-30T09:25:30;6.40;;;4.57;;
81648;SDS011;71057;51.436;6.768;2023-08-30T09:27:58;9.23;;;5.87;;
81648;SDS011;71057;51.436;6.768;2023-08-30T09:30:24;6.65;;;5.22;;
81648;SDS011;71057;51.436;6.768;2023-08-30T09:32:50;8.07;;;5.90;;
81648;SDS011;71057;51.436;6.768;2023-08-30T09:35:15;10.77;;;7.68;;
81648;SDS011;71057;51.436;6.768;2023-08-30T09:37:41;14.60;;;8.37;;
81648;SDS011;71057;51.436;6.768;2023-08-30T09:40:06;9.73;;;8.03;;
81648;SDS011;71057;51.436;6.768;2023-08-30T09:42:31;9.63;;;7.25;;
81648;SDS011;71057;51.436;6.768;2023-08-30T09:44:57;11.13;;;7.30;;
81648;SDS011;71057;51.436;6.768;2023-08-30T09:47:23;12.15;;;7.43;;
81648;SDS011;71057;51.436;6.768;2023-08-30T09:49:49;9.70;;;8.05;;
81648;SDS011;71057;51.436;6.768;2023-08-30T09:52:15;11.15;;;9.40;;
81648;SDS011;71057;51.436;6.768;2023-08-30T09:54:43;13.13;;;9.77;;
81648;SDS011;71057;51.436;6.768;2023-08-30T09:57:10;16.13;;;11.13;;
81648;SDS011;71057;51.436;6.768;2023-08-30T09:59:35;12.38;;;9.35;;
81648;SDS011;71057;51.436;6.768;2023-08-30T10:02:01;14.00;;;9.93;;
81648;SDS011;71057;51.436;6.768;2023-08-30T10:04:26;13.55;;;9.80;;
81648;SDS011;71057;51.436;6.768;2023-08-30T10:06:53;13.48;;;10.73;;
81648;SDS011;71057;51.436;6.768;2023-08-30T10:09:18;13.85;;;9.98;;
81648;SDS011;71057;51.436;6.768;2023-08-30T10:11:44;13.63;;;11.68;;
81648;SDS011;71057;51.436;6.768;2023-08-30T10:14:09;9.90;;;8.30;;
81648;SDS011;71057;51.436;6.768;2023-08-30T10:16:45;13.05;;;9.27;;
81648;SDS011;71057;51.436;6.768;2023-08-30T10:19:14;10.50;;;8.10;;
81648;SDS011;71057;51.436;6.768;2023-08-30T10:21:39;10.38;;;7.72;;
81648;SDS011;71057;51.436;6.768;2023-08-30T10:24:07;9.75;;;7.07;;
81648;SDS011;71057;51.436;6.768;2023-08-30T10:26:33;9.40;;;7.03;;
81648;SDS011;71057;51.436;6.768;2023-08-30T10:28:59;11.07;;;7.00;;
81648;SDS011;71057;51.436;6.768;2023-08-30T10:31:24;10.27;;;8.10;;
81648;SDS011;71057;51.436;6.768;2023-08-30T10:33:52;10.03;;;7.43;;
81648;SDS011;71057;51.436;6.768;2023-08-30T10:36:24;8.02;;;7.10;;
81648;SDS011;71057;51.436;6.768;2023-08-30T10:38:50;9.77;;;7.57;;
81648;SDS011;71057;51.436;6.768;2023-08-30T10:41:19;8.68;;;7.55;;
81648;SDS011;71057;51.436;6.768;2023-08-30T10:43:48;10.10;;;7.82;;
81648;SDS011;71057;51.436;6.768;2023-08-30T10:46:14;9.10;;;7.88;;
81648;SDS011;71057;51.436;6.768;2023-08-30T10:48:40;10.40;;;8.33;;
81648;SDS011;71057;51.436;6.768;2023-08-30T10:51:07;13.25;;;11.48;;
81648;SDS011;71057;51.436;6.768;2023-08-30T10:53:41;14.23;;;10.75;;
81648;SDS011;71057;51.436;6.768;2023-08-30T10:56:09;14.43;;;11.80;;
81648;SDS011;71057;51.436;6.768;2023-08-30T10:58:41;18.08;;;13.15;;
81648;SDS011;71057;51.436;6.768;2023-08-30T11:01:09;16.25;;;13.00;;
81648;SDS011;71057;51.436;6.768;2023-08-30T11:03:34;17.63;;;12.70;;
81648;SDS011;71057;51.436;6.768;2023-08-30T11:06:00;14.77;;;11.30;;
81648;SDS011;71057;51.436;6.768;2023-08-30T11:08:26;15.27;;;10.90;;
81648;SDS011;71057;51.436;6.768;2023-08-30T11:11:00;15.80;;;10.88;;
81648;SDS011;71057;51.436;6.768;2023-08-30T11:13:26;14.52;;;11.05;;
81648;SDS011;71057;51.436;6.768;2023-08-30T11:15:51;15.27;;;11.43;;
81648;SDS011;71057;51.436;6.768;2023-08-30T11:18:18;16.93;;;12.27;;
81648;SDS011;71057;51.436;6.768;2023-08-30T11:20:44;14.50;;;10.65;;
81648;SDS011;71057;51.436;6.768;2023-08-30T11:23:09;14.95;;;10.40;;
81648;SDS011;71057;51.436;6.768;2023-08-30T11:25:34;11.90;;;8.43;;
81648;SDS011;71057;51.436;6.768;2023-08-30T11:28:03;10.63;;;8.90;;
81648;SDS011;71057;51.436;6.768;2023-08-30T11:30:29;10.43;;;7.50;;
81648;SDS011;71057;51.436;6.768;2023-08-30T11:32:54;7.27;;;6.27;;
81648;SDS011;71057;51.436;6.768;2023-08-30T11:35:20;7.95;;;6.10;;
81648;SDS011;71057;51.436;6.768;2023-08-30T11:37:46;7.82;;;5.93;;
81648;SDS011;71057;51.436;6.768;2023-08-30T11:40:12;7.20;;;5.70;;
81648;SDS011;71057;51.436;6.768;2023-08-30T11:42:37;9.67;;;5.00;;
81648;SDS011;71057;51.436;6.768;2023-08-30T11:45:02;7.30;;;5.30;;
81648;SDS011;71057;51.436;6.768;2023-08-30T11:47:29;7.47;;;6.00;;
81648;SDS011;71057;51.436;6.768;2023-08-30T11:49:54;7.03;;;4.97;;
81648;SDS011;71057;51.436;6.768;2023-08-30T11:52:20;7.00;;;5.70;;
81648;SDS011;71057;51.436;6.768;2023-08-30T11:54:47;8.85;;;5.35;;
81648;SDS011;71057;51.436;6.768;2023-08-30T11:57:12;6.55;;;4.72;;
81648;SDS011;71057;51.436;6.768;2023-08-30T11:59:37;5.70;;;4.77;;
81648;SDS011;71057;51.436;6.768;2023-08-30T12:02:03;5.20;;;4.53;;
81648;SDS011;71057;51.436;6.768;2023-08-30T12:04:28;5.45;;;3.42;;
81648;SDS011;71057;51.436;6.768;2023-08-30T12:06:54;5.70;;;4.43;;
81648;SDS011;71057;51.436;6.768;2023-08-30T12:09:19;5.40;;;4.90;;
81648;SDS011;71057;51.436;6.768;2023-08-30T12:11:50;7.10;;;4.97;;
81648;SDS011;71057;51.436;6.768;2023-08-30T12:14:15;6.22;;;4.57;;
81648;SDS011;71057;51.436;6.768;2023-08-30T12:16:40;4.97;;;4.30;;
81648;SDS011;71057;51.436;6.768;2023-08-30T12:19:09;6.85;;;5.10;;
81648;SDS011;71057;51.436;6.768;2023-08-30T12:21:41;7.03;;;4.20;;
81648;SDS011;71057;51.436;6.768;2023-08-30T12:24:06;5.30;;;4.25;;
81648;SDS011;71057;51.436;6.768;2023-08-30T12:26:32;5.20;;;4.30;;
81648;SDS011;71057;51.436;6.768;2023-08-30T12:29:00;5.25;;;4.38;;
81648;SDS011;71057;51.436;6.768;2023-08-30T12:31:25;5.50;;;4.57;;
81648;SDS011;71057;51.436;6.768;2023-08-30T12:33:52;6.97;;;4.68;;
81648;SDS011;71057;51.436;6.768;2023-08-30T12:36:18;4.65;;;4.13;;
81648;SDS011;71057;51.436;6.768;2023-08-30T12:38:43;6.13;;;5.03;;
81648;SDS011;71057;51.436;6.768;2023-08-30T12:41:09;7.03;;;5.47;;
81648;SDS011;71057;51.436;6.768;2023-08-30T12:43:34;8.07;;;4.77;;
81648;SDS011;71057;51.436;6.768;2023-08-30T12:45:59;6.50;;;5.53;;
81648;SDS011;71057;51.436;6.768;2023-08-30T12:48:24;7.90;;;5.43;;
81648;SDS011;71057;51.436;6.768;2023-08-30T12:50:52;7.47;;;4.97;;
81648;SDS011;71057;51.436;6.768;2023-08-30T12:53:17;7.53;;;5.38;;
81648;SDS011;71057;51.436;6.768;2023-08-30T12:55:43;5.90;;;4.40;;
81648;SDS011;71057;51.436;6.768;2023-08-30T12:58:08;5.65;;;4.78;;
81648;SDS011;71057;51.436;6.768;2023-08-30T13:00:34;7.38;;;4.90;;
81648;SDS011;71057;51.436;6.768;2023-08-30T13:03:00;6.72;;;5.28;;
81648;SDS011;71057;51.436;6.768;2023-08-30T13:05:25;6.65;;;5.07;;
81648;SDS011;71057;51.436;6.768;2023-08-30T13:07:50;7.32;;;4.80;;
81648;SDS011;71057;51.436;6.768;2023-08-30T13:10:16;5.40;;;4.30;;
81648;SDS011;71057;51.436;6.768;2023-08-30T13:12:42;5.80;;;4.63;;
81648;SDS011;71057;51.436;6.768;2023-08-30T13:15:07;7.70;;;5.05;;
81648;SDS011;71057;51.436;6.768;2023-08-30T13:17:32;6.63;;;5.22;;
81648;SDS011;71057;51.436;6.768;2023-08-30T13:19:58;6.53;;;5.10;;
81648;SDS011;71057;51.436;6.768;2023-08-30T13:22:23;6.63;;;4.30;;
81648;SDS011;71057;51.436;6.768;2023-08-30T13:24:49;6.57;;;4.60;;
81648;SDS011;71057;51.436;6.768;2023-08-30T13:27:14;4.80;;;4.30;;
81648;SDS011;71057;51.436;6.768;2023-08-30T13:29:39;6.57;;;4.93;;
81648;SDS011;71057;51.436;6.768;2023-08-30T13:32:04;5.85;;;4.68;;
81648;SDS011;71057;51.436;6.768;2023-08-30T13:34:29;5.57;;;4.80;;
81648;SDS011;71057;51.436;6.768;2023-08-30T13:36:55;4.70;;;4.20;;
81648;SDS011;71057;51.436;6.768;2023-08-30T13:39:20;7.35;;;4.75;;
81648;SDS011;71057;51.436;6.768;2023-08-30T13:41:46;6.17;;;4.63;;
81648;SDS011;71057;51.436;6.768;2023-08-30T13:44:11;5.38;;;4.28;;
81648;SDS011;71057;51.436;6.768;2023-08-30T13:46:36;5.05;;;4.30;;
81648;SDS011;71057;51.436;6.768;2023-08-30T13:49:02;6.05;;;4.72;;
81648;SDS011;71057;51.436;6.768;2023-08-30T13:51:27;6.32;;;5.32;;
81648;SDS011;71057;51.436;6.768;2023-08-30T13:53:52;5.07;;;4.20;;
81648;SDS011;71057;51.436;6.768;2023-08-30T13:56:18;6.47;;;4.07;;
81648;SDS011;71057;51.436;6.768;2023-08-30T13:58:43;7.45;;;5.32;;
81648;SDS011;71057;51.436;6.768;2023-08-30T14:01:09;6.53;;;4.68;;
81648;SDS011;71057;51.436;6.768;2023-08-30T14:03:34;5.67;;;4.43;;
81648;SDS011;71057;51.436;6.768;2023-08-30T14:06:02;8.50;;;5.63;;
81648;SDS011;71057;51.436;6.768;2023-08-30T14:08:27;6.78;;;4.97;;
81648;SDS011;71057;51.436;6.768;2023-08-30T14:10:54;9.73;;;5.13;;
81648;SDS011;71057;51.436;6.768;2023-08-30T14:13:19;6.60;;;5.22;;
81648;SDS011;71057;51.436;6.768;2023-08-30T14:15:44;7.57;;;5.53;;
81648;SDS011;71057;51.436;6.768;2023-08-30T14:18:09;8.77;;;6.07;;
81648;SDS011;71057;51.436;6.768;2023-08-30T14:20:34;7.67;;;5.10;;
81648;SDS011;71057;51.436;6.768;2023-08-30T14:23:00;5.93;;;5.33;;
81648;SDS011;71057;51.436;6.768;2023-08-30T14:25:25;7.07;;;5.20;;
81648;SDS011;71057;51.436;6.768;2023-08-30T14:27:50;5.63;;;4.10;;
81648;SDS011;71057;51.436;6.768;2023-08-30T14:30:15;6.43;;;4.50;;